Time;durP1;ratioP1;P1;durP2;ratioP2;P2;SDS_P1;SDS_P2;PMS_P1;PMS_P2;Temp;Humidity;BMP_temperature;BMP_pressure;BME280_temperature;BME280_humidity;BME280_pressure;Samples;Min_cycle;Max_cycle;Signal;HPM_P1;HPM_P2
2022/04/17 00:01:44;;;;;;;14.98;8.20;;;;;;;4.00;63.33;97588.41;4977797;28;20483;-66
2022/04/17 00:04:10;;;;;;;14.18;8.38;;;;;;;3.89;63.93;97583.47;4966563;28;20053;-66
2022/04/17 00:06:37;;;;;;;15.80;8.75;;;;;;;3.83;63.88;97586.28;4978336;28;20054;-66
2022/04/17 00:09:02;;;;;;;18.20;8.55;;;;;;;3.79;64.30;97579.06;4979654;28;20043;-65
2022/04/17 00:11:28;;;;;;;13.30;8.38;;;;;;;3.70;64.74;97576.25;4979005;28;20050;-65
2022/04/17 00:13:55;;;;;;;14.77;9.27;;;;;;;3.64;65.80;97586.38;4980830;28;20136;-66
2022/04/17 00:16:20;;;;;;;14.68;9.85;;;;;;;3.60;66.13;97573.72;4972200;28;20038;-66
2022/04/17 00:18:46;;;;;;;18.42;9.45;;;;;;;3.60;66.74;97579.13;4972797;28;20042;-65
2022/04/17 00:21:11;;;;;;;15.38;9.10;;;;;;;3.51;67.25;97573.63;4990075;28;20086;-65
2022/04/17 00:23:37;;;;;;;15.02;9.23;;;;;;;3.60;67.37;97576.41;4980355;28;20614;-68
2022/04/17 00:26:02;;;;;;;16.17;9.30;;;;;;;3.51;68.03;97570.09;4980583;28;20079;-65
2022/04/17 00:28:28;;;;;;;18.35;10.23;;;;;;;3.44;68.73;97565.09;4981998;28;20042;-65
2022/04/17 00:30:54;;;;;;;15.85;9.27;;;;;;;3.45;68.94;97563.97;4987959;28;20204;-65
2022/04/17 00:33:19;;;;;;;13.80;9.07;;;;;;;3.42;69.16;97559.16;4974750;28;20624;-68
2022/04/17 00:35:45;;;;;;;13.70;8.82;;;;;;;3.41;69.70;97561.06;4985065;28;20042;-67
2022/04/17 00:38:11;;;;;;;16.73;9.07;;;;;;;3.40;70.12;97553.22;4982080;28;20042;-66
2022/04/17 00:40:37;;;;;;;13.77;9.77;;;;;;;3.37;70.37;97545.72;4976697;28;20100;-66
2022/04/17 00:43:30;;;;;;;16.60;8.90;;;;;;;3.30;71.19;97554.22;4978067;28;20074;-64
2022/04/17 00:45:59;;;;;;;12.82;8.70;;;;;;;3.33;70.67;97558.22;4987623;28;20125;-66
2022/04/17 00:48:25;;;;;;;15.85;9.25;;;;;;;3.27;71.51;97559.44;4959640;28;20101;-66
2022/04/17 00:50:53;;;;;;;14.95;9.20;;;;;;;3.28;71.77;97552.91;4980679;28;20132;-66
2022/04/17 00:53:21;;;;;;;13.68;9.57;;;;;;;3.28;71.63;97564.56;4976346;28;20049;-65
2022/04/17 00:55:48;;;;;;;15.02;8.65;;;;;;;3.22;72.22;97553.00;4982594;28;20046;-65
2022/04/17 00:58:14;;;;;;;14.75;9.10;;;;;;;3.12;72.53;97547.78;4978356;28;20141;-66
2022/04/17 01:00:41;;;;;;;13.57;9.05;;;;;;;3.10;73.10;97539.16;4983556;28;20046;-66
2022/04/17 01:03:06;;;;;;;16.73;10.18;;;;;;;3.15;72.92;97543.66;4978690;28;20046;-65
2022/04/17 01:05:32;;;;;;;17.23;9.52;;;;;;;3.05;73.67;97537.31;4982362;28;20069;-65
2022/04/17 01:07:58;;;;;;;14.20;8.50;;;;;;;3.09;73.05;97531.31;4964074;28;20043;-66
2022/04/17 01:10:24;;;;;;;16.50;9.15;;;;;;;3.15;72.71;97541.78;4970341;28;20194;-66
2022/04/17 01:12:52;;;;;;;14.55;8.63;;;;;;;3.16;72.67;97527.13;4962596;28;20141;-66
2022/04/17 01:15:18;;;;;;;15.27;9.32;;;;;;;3.14;72.66;97537.44;4958238;28;20057;-65
2022/04/17 01:17:44;;;;;;;12.77;8.23;;;;;;;3.12;72.40;97525.31;4963753;28;20130;-66
2022/04/17 01:20:10;;;;;;;14.48;8.73;;;;;;;3.10;72.67;97531.03;4963142;28;20130;-66
2022/04/17 01:22:35;;;;;;;14.95;8.43;;;;;;;3.13;72.08;97535.81;4979175;28;20042;-66
2022/04/17 01:27:45;;;;;;;12.73;7.68;;;;;;;3.06;71.86;97522.69;4987333;28;20085;-65
2022/04/17 01:30:10;;;;;;;15.30;9.40;;;;;;;3.05;72.27;97526.50;4977475;28;20035;-66
2022/04/17 01:32:36;;;;;;;14.63;8.52;;;;;;;3.05;72.11;97525.69;4971795;28;20848;-67
2022/04/17 01:35:01;;;;;;;13.57;8.38;;;;;;;3.03;72.00;97515.16;4980993;28;20034;-66
2022/04/17 01:37:27;;;;;;;11.80;8.25;;;;;;;3.08;71.14;97513.47;4992458;28;20506;-64
2022/04/17 01:39:52;;;;;;;13.25;8.15;;;;;;;3.05;71.30;97523.78;4988288;28;20083;-64
2022/04/17 01:42:17;;;;;;;11.80;8.00;;;;;;;3.09;71.04;97499.63;4975844;28;20061;-66
2022/04/17 01:44:44;;;;;;;9.75;6.85;;;;;;;3.04;70.50;97518.66;4985348;28;20052;-65
2022/04/17 01:47:09;;;;;;;13.05;7.97;;;;;;;3.02;70.64;97504.63;4991688;28;20140;-64
2022/04/17 01:49:36;;;;;;;14.13;8.27;;;;;;;3.02;70.86;97501.94;4992979;28;20142;-65
2022/04/17 01:52:02;;;;;;;11.60;7.18;;;;;;;3.03;70.41;97492.72;4989579;28;20042;-66
2022/04/17 01:54:28;;;;;;;11.68;7.90;;;;;;;3.02;70.03;97496.50;4978479;28;20066;-67
2022/04/17 01:56:54;;;;;;;14.75;8.77;;;;;;;3.01;70.48;97478.69;4981944;28;20073;-67
2022/04/17 01:59:21;;;;;;;10.38;7.50;;;;;;;2.92;70.76;97497.50;4975709;28;20046;-68
2022/04/17 02:01:48;;;;;;;11.32;7.38;;;;;;;2.98;69.95;97468.44;4981304;28;20051;-66
2022/04/17 02:04:14;;;;;;;10.75;7.57;;;;;;;2.90;70.93;97491.59;4976222;28;20042;-65
2022/04/17 02:06:40;;;;;;;10.68;7.28;;;;;;;2.90;70.75;97469.13;4981267;28;20379;-65
2022/04/17 02:09:11;;;;;;;11.20;6.70;;;;;;;2.89;70.41;97481.06;4988253;28;20064;-64
2022/04/17 02:11:38;;;;;;;9.68;6.32;;;;;;;2.87;70.88;97475.94;5001490;28;20049;-65
2022/04/17 02:14:04;;;;;;;10.10;6.68;;;;;;;2.82;70.51;97466.00;4998758;28;20129;-63
2022/04/17 02:16:30;;;;;;;11.02;6.57;;;;;;;2.80;70.67;97476.31;5002489;28;20525;-67
2022/04/17 02:18:55;;;;;;;10.43;7.20;;;;;;;2.76;70.64;97471.81;5017788;28;20089;-66
2022/04/17 02:21:21;;;;;;;10.18;6.65;;;;;;;2.74;70.68;97466.69;4990728;28;20050;-65
2022/04/17 02:23:47;;;;;;;9.70;7.00;;;;;;;2.77;70.32;97481.53;4982326;28;20052;-66
2022/04/17 02:26:16;;;;;;;10.55;6.85;;;;;;;2.73;70.88;97461.59;4976140;28;20081;-64
2022/04/17 02:28:41;;;;;;;9.37;6.37;;;;;;;2.67;70.82;97469.78;4981560;28;20050;-66
2022/04/17 02:31:08;;;;;;;11.40;7.00;;;;;;;2.65;70.63;97463.88;4976034;28;20042;-65
2022/04/17 02:33:34;;;;;;;11.63;6.75;;;;;;;2.67;70.84;97468.97;4980525;28;20057;-66
2022/04/17 02:36:00;;;;;;;12.85;6.20;;;;;;;2.67;70.58;97463.56;4980058;28;20053;-67
2022/04/17 02:38:26;;;;;;;11.63;6.53;;;;;;;2.66;70.27;97465.44;4976160;28;20046;-67
2022/04/17 02:40:53;;;;;;;10.52;6.97;;;;;;;2.57;70.95;97461.81;4981666;28;20050;-65
2022/04/17 02:43:19;;;;;;;11.48;6.68;;;;;;;2.60;70.20;97463.94;4977063;28;20387;-65
2022/04/17 02:45:45;;;;;;;10.30;6.03;;;;;;;2.57;71.01;97459.13;5001290;28;20116;-65
2022/04/17 02:48:10;;;;;;;11.07;5.97;;;;;;;2.59;70.84;97456.94;4983967;28;20052;-66
2022/04/17 02:50:36;;;;;;;9.60;6.22;;;;;;;2.62;70.33;97456.34;4980771;28;20355;-66
2022/04/17 02:53:02;;;;;;;8.45;6.05;;;;;;;2.60;70.24;97450.41;4978815;28;20863;-63
2022/04/17 02:55:27;;;;;;;10.30;7.10;;;;;;;2.51;70.60;97457.59;4970721;28;20506;-65
2022/04/17 02:57:54;;;;;;;13.05;6.43;;;;;;;2.53;70.14;97447.28;4980256;28;20757;-65
2022/04/17 03:00:21;;;;;;;8.27;5.88;;;;;;;2.50;70.55;97450.59;4989589;28;20043;-65
2022/04/17 03:05:37;;;;;;;10.98;6.93;;;;;;;2.42;71.51;97453.97;4983100;28;20073;-66
2022/04/17 03:08:11;;;;;;;12.57;6.22;;;;;;;2.40;71.00;97453.47;4980995;28;20049;-65
2022/04/17 03:10:49;;;;;;;10.80;6.97;;;;;;;2.38;71.17;97461.06;4962985;28;20062;-66
2022/04/17 03:13:15;;;;;;;8.52;5.63;;;;;;;2.35;71.23;97450.84;4973848;28;20120;-67
2022/04/17 03:15:41;;;;;;;7.95;5.90;;;;;;;2.34;71.53;97450.06;4979507;28;20711;-66
2022/04/17 03:18:08;;;;;;;7.82;6.03;;;;;;;2.30;71.60;97451.72;4975710;28;20046;-66
2022/04/17 03:20:34;;;;;;;10.48;6.50;;;;;;;2.19;72.18;97451.06;4980641;28;20101;-66
2022/04/17 03:23:01;;;;;;;10.55;6.05;;;;;;;2.17;72.05;97436.25;4983157;28;20141;-65
2022/04/17 03:25:27;;;;;;;11.32;6.38;;;;;;;2.08;72.31;97460.44;4978408;28;20043;-66
2022/04/17 03:27:53;;;;;;;10.23;6.40;;;;;;;2.10;71.58;97458.22;4998060;28;20081;-67
2022/04/17 03:30:19;;;;;;;13.20;5.88;;;;;;;2.15;71.18;97460.06;4976740;28;20074;-65
2022/04/17 03:32:46;;;;;;;9.45;5.78;;;;;;;2.08;71.94;97461.22;4980709;28;20396;-65
2022/04/17 03:35:13;;;;;;;9.13;5.65;;;;;;;2.07;71.73;97466.91;4975759;28;20133;-65
2022/04/17 03:37:42;;;;;;;7.93;5.30;;;;;;;2.05;71.76;97448.31;4977674;28;20487;-66
2022/04/17 03:40:08;;;;;;;9.38;5.70;;;;;;;1.96;72.80;97454.66;4964839;28;20038;-65
2022/04/17 03:42:35;;;;;;;9.13;6.18;;;;;;;1.95;72.46;97455.78;4971443;28;20046;-65
2022/04/17 03:45:02;;;;;;;9.95;6.15;;;;;;;1.95;72.67;97466.56;4974091;28;20138;-66
2022/04/17 03:47:28;;;;;;;9.23;6.03;;;;;;;1.85;72.61;97468.28;4963746;28;20077;-66
2022/04/17 03:49:53;;;;;;;9.77;5.57;;;;;;;1.83;73.13;97445.38;4966407;28;20042;-65
2022/04/17 03:52:19;;;;;;;11.20;5.78;;;;;;;1.81;73.04;97467.28;4975913;28;20034;-65
2022/04/17 03:54:44;;;;;;;9.88;5.65;;;;;;;1.82;73.17;97459.97;4980885;28;20427;-66
2022/04/17 03:57:09;;;;;;;7.38;4.85;;;;;;;1.85;72.26;97457.50;4974767;28;20073;-66
2022/04/17 03:59:35;;;;;;;8.75;5.55;;;;;;;1.71;73.13;97452.03;4980996;28;20053;-66
2022/04/17 04:02:01;;;;;;;11.88;7.90;;;;;;;1.77;73.06;97451.97;4995327;28;20085;-66
2022/04/17 04:04:27;;;;;;;7.88;5.15;;;;;;;1.72;72.96;97459.00;4976907;28;20046;-66
2022/04/17 04:06:52;;;;;;;8.00;5.03;;;;;;;1.71;72.70;97459.31;4983273;28;20065;-65
2022/04/17 04:09:18;;;;;;;8.98;5.25;;;;;;;1.66;73.36;97448.59;4978749;28;20038;-67
2022/04/17 04:11:44;;;;;;;8.73;5.85;;;;;;;1.73;72.28;97465.25;4985313;28;20470;-68
2022/04/17 04:14:10;;;;;;;11.15;5.43;;;;;;;1.65;72.89;97457.78;4980778;28;20045;-67
2022/04/17 04:16:35;;;;;;;7.10;4.85;;;;;;;1.64;72.22;97448.88;4983988;28;20046;-68
2022/04/17 04:19:02;;;;;;;8.05;4.80;;;;;;;1.56;73.41;97457.59;4985066;28;20050;-65
2022/04/17 04:21:28;;;;;;;8.77;5.50;;;;;;;1.64;72.03;97451.56;4995430;28;20715;-67
2022/04/17 04:23:53;;;;;;;9.70;5.03;;;;;;;1.54;72.97;97462.50;4985711;28;20057;-67
2022/04/17 04:26:18;;;;;;;8.43;5.50;;;;;;;1.43;73.36;97451.03;4995060;28;20042;-67
2022/04/17 04:28:44;;;;;;;6.97;5.05;;;;;;;1.45;73.45;97448.03;5000877;28;20061;-67
2022/04/17 04:31:11;;;;;;;8.93;5.50;;;;;;;1.52;73.10;97454.69;4994494;28;20054;-67
2022/04/17 04:33:38;;;;;;;8.82;5.05;;;;;;;1.56;72.35;97454.91;4986244;28;20565;-66
2022/04/17 04:36:06;;;;;;;7.20;4.53;;;;;;;1.53;73.07;97464.41;4995101;28;20077;-64
2022/04/17 04:38:32;;;;;;;7.03;5.00;;;;;;;1.55;72.40;97449.78;4995916;28;20038;-67
2022/04/17 04:40:59;;;;;;;7.25;5.35;;;;;;;1.53;72.80;97464.41;4989740;28;20043;-67
2022/04/17 04:43:25;;;;;;;7.45;5.53;;;;;;;1.55;72.55;97457.91;4983403;28;20769;-67
2022/04/17 04:46:09;;;;;;;7.20;4.78;;;;;;;1.45;73.62;97461.53;4985586;28;20072;-67
2022/04/17 04:51:28;;;;;;;7.50;5.22;;;;;;;1.51;73.58;97452.28;4989503;28;20285;-65
2022/04/17 04:53:56;;;;;;;9.40;6.13;;;;;;;1.51;73.02;97453.09;4988412;28;20038;-68
2022/04/17 04:56:23;;;;;;;6.85;5.07;;;;;;;1.48;73.66;97459.06;4978747;28;20124;-67
2022/04/17 04:58:49;;;;;;;7.90;5.40;;;;;;;1.53;72.88;97459.00;4983677;28;20045;-68
2022/04/17 05:01:14;;;;;;;6.93;4.65;;;;;;;1.55;72.93;97457.91;4978394;28;20050;-68
2022/04/17 05:03:41;;;;;;;7.65;5.35;;;;;;;1.62;72.83;97455.66;4982630;28;20046;-66
2022/04/17 05:06:07;;;;;;;7.32;5.50;;;;;;;1.70;71.92;97455.81;4977748;28;20042;-66
2022/04/17 05:08:33;;;;;;;8.00;5.63;;;;;;;1.76;71.45;97447.63;4982457;28;20088;-66
2022/04/17 05:10:59;;;;;;;11.15;5.22;;;;;;;2.00;70.04;97451.09;4983379;28;20053;-66
2022/04/17 05:13:24;;;;;;;8.23;4.85;;;;;;;2.38;69.21;97448.34;4973263;28;20038;-65
2022/04/17 05:15:50;;;;;;;5.72;4.05;;;;;;;2.68;66.77;97451.63;4980107;28;20487;-66
2022/04/17 05:18:15;;;;;;;7.53;4.95;;;;;;;2.67;66.39;97414.88;4976514;28;20042;-65
2022/04/17 05:20:41;;;;;;;10.23;4.88;;;;;;;2.90;66.02;97434.78;4983339;28;20052;-64
2022/04/17 05:23:19;;;;;;;7.68;4.82;;;;;;;3.34;64.97;97435.28;4978225;28;20042;-65
2022/04/17 05:25:47;;;;;;;6.40;4.13;;;;;;;3.51;63.07;97424.66;4982810;28;21162;-64
2022/04/17 05:28:13;;;;;;;8.15;4.63;;;;;;;3.38;64.21;97439.78;4977904;28;20084;-65
2022/04/17 05:30:39;;;;;;;8.07;4.53;;;;;;;3.48;63.11;97438.78;4984794;28;20046;-65
2022/04/17 05:33:05;;;;;;;5.93;4.75;;;;;;;4.05;60.29;97437.56;4980568;28;20584;-65
2022/04/17 05:35:30;;;;;;;5.97;4.40;;;;;;;4.24;61.35;97443.66;4981923;28;20096;-65
2022/04/17 05:37:55;;;;;;;5.78;4.18;;;;;;;4.29;60.91;97446.25;4982990;28;20100;-66
2022/04/17 05:40:21;;;;;;;7.13;4.22;;;;;;;4.29;59.14;97432.69;4978000;28;20046;-65
2022/04/17 05:42:47;;;;;;;6.43;4.10;;;;;;;4.12;60.52;97449.59;4983331;28;20418;-65
2022/04/17 05:45:12;;;;;;;19.42;10.68;;;;;;;4.47;59.26;97446.38;4976831;28;20038;-66
2022/04/17 05:47:37;;;;;;;6.15;4.53;;;;;;;4.37;59.09;97444.69;4982653;28;20074;-65
2022/04/17 05:50:05;;;;;;;6.68;4.38;;;;;;;4.79;56.69;97435.25;4979516;28;20402;-64
2022/04/17 05:52:31;;;;;;;8.93;4.90;;;;;;;4.27;59.80;97447.63;4982984;28;20046;-66
2022/04/17 05:54:57;;;;;;;5.78;4.00;;;;;;;4.32;58.77;97444.81;4988141;28;20058;-66
2022/04/17 05:57:22;;;;;;;6.50;4.43;;;;;;;4.69;58.74;97445.56;4989633;28;20076;-65
2022/04/17 05:59:48;;;;;;;6.57;4.55;;;;;;;4.47;58.43;97446.38;4986044;28;20129;-66
2022/04/17 06:02:15;;;;;;;7.72;5.28;;;;;;;4.37;58.25;97444.69;5006129;23;20616;-69
2022/04/17 06:04:41;;;;;;;9.02;6.15;;;;;;;5.20;56.92;97451.56;5002031;28;20042;-66
2022/04/17 06:07:06;;;;;;;8.25;4.95;;;;;;;5.99;55.21;97452.63;5002199;28;20049;-68
2022/04/17 06:09:31;;;;;;;6.30;4.50;;;;;;;5.45;54.38;97459.03;5002020;28;20104;-68
2022/04/17 06:11:57;;;;;;;7.80;4.88;;;;;;;5.75;55.21;97454.63;5002483;28;20041;-67
2022/04/17 06:14:22;;;;;;;8.27;6.03;;;;;;;5.70;54.79;97451.25;4996488;28;20101;-68
2022/04/17 06:16:47;;;;;;;7.82;4.80;;;;;;;5.38;55.48;97447.81;5001034;28;20097;-66
2022/04/17 06:19:17;;;;;;;8.07;5.90;;;;;;;5.37;55.46;97443.50;4996339;28;20041;-67
2022/04/17 06:21:43;;;;;;;7.28;5.15;;;;;;;6.00;53.72;97455.03;5002138;28;20038;-67
2022/04/17 06:24:08;;;;;;;6.93;5.40;;;;;;;5.87;54.68;97458.66;4998233;28;20053;-68
2022/04/17 06:26:34;;;;;;;7.95;4.90;;;;;;;5.26;55.42;97453.84;5000118;28;20542;-67
2022/04/17 06:29:03;;;;;;;6.78;4.63;;;;;;;5.30;54.68;97464.88;5001690;28;20045;-68
2022/04/17 06:31:30;;;;;;;6.82;5.80;;;;;;;5.49;55.31;97464.63;5000295;28;20042;-69
2022/04/17 06:33:55;;;;;;;8.95;5.25;;;;;;;5.64;55.12;97469.63;5001902;28;20116;-68
2022/04/17 06:36:20;;;;;;;9.63;5.93;;;;;;;5.44;54.58;97462.88;4996202;28;20092;-67
2022/04/17 06:38:46;;;;;;;8.18;4.85;;;;;;;5.38;54.58;97447.00;5001537;28;20038;-68
2022/04/17 06:41:11;;;;;;;6.63;4.25;;;;;;;5.33;54.70;97464.25;4997681;28;20052;-68
2022/04/17 06:43:37;;;;;;;6.47;5.53;;;;;;;5.74;54.92;97454.94;5003008;28;20044;-68
2022/04/17 06:46:03;;;;;;;13.23;5.18;;;;;;;5.69;54.25;97464.06;5010934;28;20037;-69
2022/04/17 06:48:28;;;;;;;8.00;4.75;;;;;;;5.75;53.45;97462.78;5019743;28;20498;-66
2022/04/17 06:50:55;;;;;;;9.07;6.40;;;;;;;5.73;53.33;97454.16;5002548;28;20053;-68
2022/04/17 06:53:21;;;;;;;6.53;5.03;;;;;;;5.88;54.18;97457.53;4996534;28;20046;-67
2022/04/17 06:55:48;;;;;;;5.78;4.30;;;;;;;5.99;53.44;97453.41;5000627;28;20048;-67
2022/04/17 06:58:14;;;;;;;6.85;4.82;;;;;;;6.44;53.26;97453.13;4996307;28;20397;-68
2022/04/17 07:00:39;;;;;;;7.45;5.00;;;;;;;6.36;52.94;97443.06;5000685;28;20042;-68
2022/04/17 07:03:05;;;;;;;8.73;5.18;;;;;;;6.19;52.47;97443.84;4995783;28;20058;-69
2022/04/17 07:05:31;;;;;;;6.28;4.72;;;;;;;6.58;52.48;97446.72;5000046;28;20500;-68
2022/04/17 07:08:05;;;;;;;6.90;4.75;;;;;;;6.09;52.71;97460.50;5017865;28;20573;-68
2022/04/17 07:10:31;;;;;;;10.35;4.97;;;;;;;5.94;53.73;97434.50;5006186;28;20832;-68
2022/04/17 07:12:57;;;;;;;8.13;4.65;;;;;;;5.78;52.38;97455.13;5002271;28;20061;-68
2022/04/17 07:15:26;;;;;;;7.70;4.88;;;;;;;6.19;53.18;97443.03;4995166;28;20088;-69
2022/04/17 07:17:56;;;;;;;9.63;5.03;;;;;;;6.34;51.98;97436.31;5000921;28;20077;-68
2022/04/17 07:20:22;;;;;;;7.00;4.93;;;;;;;6.19;51.81;97434.88;4995370;28;20053;-69
2022/04/17 07:22:49;;;;;;;7.35;4.90;;;;;;;6.32;51.99;97436.66;5000348;28;20081;-68
2022/04/17 07:25:15;;;;;;;6.72;3.95;;;;;;;6.75;52.86;97438.50;4995649;28;20042;-68
2022/04/17 07:27:43;;;;;;;8.10;4.32;;;;;;;7.23;52.58;97439.34;5000449;28;20060;-69
2022/04/17 07:30:26;;;;;;;5.88;4.20;;;;;;;7.77;49.53;97439.56;4995276;28;20053;-68
2022/04/17 07:32:56;;;;;;;7.00;4.45;;;;;;;7.76;50.43;97437.16;5001484;28;20145;-67
2022/04/17 07:35:24;;;;;;;4.97;3.88;;;;;;;7.33;50.60;97435.44;4994879;28;20535;-66
2022/04/17 07:37:51;;;;;;;9.00;5.88;;;;;;;7.06;49.16;97429.31;5001312;28;20044;-67
2022/04/17 07:40:19;;;;;;;6.45;4.63;;;;;;;7.37;50.15;97433.69;4997406;28;20045;-68
2022/04/17 07:42:45;;;;;;;6.53;4.22;;;;;;;7.65;48.50;97418.47;5005383;28;20487;-68
2022/04/17 07:45:13;;;;;;;7.30;4.07;;;;;;;7.44;49.95;97431.25;5012151;28;20053;-68
2022/04/17 07:47:39;;;;;;;6.00;4.22;;;;;;;7.43;48.42;97426.91;5007364;28;20066;-68
2022/04/17 07:50:07;;;;;;;4.78;3.50;;;;;;;7.69;49.41;97426.78;4999044;28;20123;-69
2022/04/17 07:52:34;;;;;;;4.85;3.47;;;;;;;7.60;47.48;97409.69;5004757;28;20046;-68
2022/04/17 07:54:59;;;;;;;7.47;3.80;;;;;;;7.98;48.00;97439.59;5004739;28;20041;-68
2022/04/17 07:57:25;;;;;;;5.88;3.85;;;;;;;8.04;47.21;97437.47;4999000;28;20049;-66
2022/04/17 07:59:55;;;;;;;6.50;3.63;;;;;;;8.51;47.07;97420.09;5004341;28;20388;-68
2022/04/17 08:02:28;;;;;;;7.82;4.70;;;;;;;8.70;45.13;97427.81;4999441;28;20046;-69
2022/04/17 08:04:54;;;;;;;9.10;4.32;;;;;;;8.15;45.54;97414.09;5004546;28;20053;-68
2022/04/17 08:07:23;;;;;;;9.95;3.72;;;;;;;7.59;46.17;97419.78;5009945;28;20565;-68
2022/04/17 08:09:49;;;;;;;6.85;4.32;;;;;;;7.73;45.83;97416.03;5022975;28;20128;-68
2022/04/17 08:12:14;;;;;;;5.75;4.20;;;;;;;7.79;46.50;97398.31;5018501;28;20401;-68
2022/04/17 08:14:40;;;;;;;6.28;3.63;;;;;;;8.41;45.26;97410.38;5023540;28;20045;-68
2022/04/17 08:17:05;;;;;;;6.10;3.88;;;;;;;8.29;44.33;97392.00;5018081;28;20466;-69
2022/04/17 08:19:32;;;;;;;9.48;4.38;;;;;;;8.72;45.46;97396.28;5022086;28;20045;-68
2022/04/17 08:22:01;;;;;;;5.85;3.25;;;;;;;8.96;43.79;97397.47;5023507;28;20045;-68
2022/04/17 08:24:26;;;;;;;3.97;2.97;;;;;;;9.45;42.56;97399.44;5018559;28;20034;-68
2022/04/17 08:26:52;;;;;;;6.07;3.30;;;;;;;9.52;43.39;97399.69;5022495;28;20060;-68
2022/04/17 08:29:19;;;;;;;4.88;3.25;;;;;;;8.77;42.91;97385.16;5017503;28;20053;-68
2022/04/17 08:31:45;;;;;;;3.88;2.75;;;;;;;9.20;42.27;97385.78;5023608;28;20068;-68
2022/04/17 08:34:10;;;;;;;6.50;3.72;;;;;;;8.97;42.98;97396.34;5018786;28;20046;-68
2022/04/17 08:36:36;;;;;;;5.68;3.67;;;;;;;9.72;43.67;97389.75;5023486;28;20054;-68
2022/04/17 08:39:01;;;;;;;5.30;3.30;;;;;;;9.76;42.53;97375.03;5023710;28;20049;-67
2022/04/17 08:41:27;;;;;;;4.25;2.75;;;;;;;9.41;42.92;97382.94;5017979;28;20532;-66
2022/04/17 08:43:52;;;;;;;4.38;2.88;;;;;;;9.65;43.47;97384.06;5011388;28;20482;-67
2022/04/17 08:46:18;;;;;;;6.55;3.28;;;;;;;9.79;42.32;97384.50;5002499;28;20060;-67
2022/04/17 08:48:44;;;;;;;4.68;2.90;;;;;;;10.34;41.85;97384.97;5012038;28;20046;-67
2022/04/17 08:51:10;;;;;;;4.03;2.83;;;;;;;9.82;41.70;97381.06;5008209;28;20053;-68
2022/04/17 08:53:36;;;;;;;3.95;2.72;;;;;;;9.60;42.46;97357.75;5022141;28;20045;-68
2022/04/17 08:56:03;;;;;;;5.00;2.50;;;;;;;9.82;41.18;97372.06;5002307;28;20038;-68
2022/04/17 08:58:29;;;;;;;6.13;2.90;;;;;;;9.54;41.77;97364.56;5018258;28;20529;-69
2022/04/17 09:00:55;;;;;;;4.28;2.75;;;;;;;9.74;41.15;97346.44;5022651;28;20052;-69
2022/04/17 09:03:20;;;;;;;4.03;2.53;;;;;;;10.60;40.30;97364.53;5017783;28;20056;-69
2022/04/17 09:05:47;;;;;;;6.05;2.88;;;;;;;9.88;40.93;97355.06;5022713;28;20566;-67
2022/04/17 09:08:18;;;;;;;6.63;2.78;;;;;;;10.04;41.82;97343.41;5017172;28;20068;-67
2022/04/17 09:10:55;;;;;;;5.65;2.95;;;;;;;10.07;40.65;97348.97;5014220;28;20557;-67
2022/04/17 09:13:32;;;;;;;5.07;2.80;;;;;;;10.05;41.54;97345.78;4998059;28;20074;-68
2022/04/17 09:15:58;;;;;;;4.15;2.78;;;;;;;9.78;41.57;97344.63;5000902;28;20048;-69
2022/04/17 09:18:28;;;;;;;5.05;2.55;;;;;;;10.03;41.22;97344.53;4997952;28;20133;-67
2022/04/17 09:20:53;;;;;;;8.90;2.92;;;;;;;10.08;40.42;97320.47;5002370;28;20076;-68
2022/04/17 09:23:38;;;;;;;3.97;2.35;;;;;;;10.25;39.76;97335.00;4997755;28;20474;-67
2022/04/17 09:26:05;;;;;;;3.85;2.50;;;;;;;10.98;40.82;97322.03;5008960;28;20029;-70
2022/04/17 09:28:36;;;;;;;5.97;2.40;;;;;;;10.71;40.80;97321.75;5031537;28;20103;-70
2022/04/17 09:31:09;;;;;;;4.35;2.38;;;;;;;11.24;41.20;97319.56;5020561;28;20041;-68
2022/04/17 09:33:37;;;;;;;4.40;2.58;;;;;;;11.25;39.31;97312.13;5021175;28;20604;-67
2022/04/17 09:36:03;;;;;;;5.35;2.95;;;;;;;10.61;39.67;97316.81;5019312;28;20161;-68
2022/04/17 09:38:35;;;;;;;5.65;3.33;;;;;;;11.34;40.40;97312.72;5018914;28;20053;-68
2022/04/17 09:41:13;;;;;;;4.88;2.22;;;;;;;11.37;37.81;97322.97;5012109;28;20136;-68
2022/04/17 09:43:39;;;;;;;4.22;2.53;;;;;;;10.51;38.31;97318.13;5004078;28;20056;-68
2022/04/17 09:46:09;;;;;;;5.20;2.20;;;;;;;10.82;39.91;97311.06;5001745;28;20409;-69
2022/04/17 09:48:35;;;;;;;;;;;;;;;11.75;37.54;97315.19;5009217;28;20038;-68
2022/04/17 09:51:18;;;;;;;3.75;2.67;;;;;;;11.82;38.32;97318.09;5014026;28;19921;-69
2022/04/17 09:53:54;;;;;;;5.05;2.40;;;;;;;11.90;37.46;97308.06;5021370;28;20037;-67
2022/04/17 09:56:29;;;;;;;7.28;2.90;;;;;;;12.04;37.68;97303.66;5016532;28;20073;-69
2022/04/17 09:58:55;;;;;;;5.43;2.33;;;;;;;12.63;37.84;97309.91;5021748;28;20053;-70
2022/04/17 10:01:21;;;;;;;5.45;2.95;;;;;;;12.02;39.65;97305.19;5006448;28;20038;-68
2022/04/17 10:03:49;;;;;;;5.95;2.97;;;;;;;13.27;38.04;97309.41;5020153;28;20065;-67
2022/04/17 10:06:16;;;;;;;6.57;2.65;;;;;;;13.09;36.56;97303.63;5010889;28;20045;-68
2022/04/17 10:08:45;;;;;;;5.00;2.95;;;;;;;12.99;34.69;97282.22;5013017;28;20095;-67
2022/04/17 10:11:13;;;;;;;6.30;2.30;;;;;;;14.41;32.97;97289.28;5012025;28;20045;-68
2022/04/17 10:13:40;;;;;;;5.55;2.72;;;;;;;13.17;37.29;97294.31;5016129;28;20662;-67
2022/04/17 10:16:08;;;;;;;3.97;3.20;;;;;;;12.62;35.63;97291.84;4999906;28;20045;-68
2022/04/17 10:18:39;;;;;;;5.55;3.40;;;;;;;11.98;37.87;97288.66;4999579;28;20042;-67
2022/04/17 10:21:06;;;;;;;4.78;2.80;;;;;;;12.79;36.97;97284.28;5003000;28;20045;-68
2022/04/17 10:23:35;;;;;;;4.13;2.63;;;;;;;13.26;36.05;97283.03;5011290;28;20041;-67
2022/04/17 10:26:03;;;;;;;4.82;4.00;;;;;;;12.15;37.07;97265.44;5006440;28;20140;-67
2022/04/17 10:28:35;;;;;;;5.45;3.20;;;;;;;12.34;37.61;97261.88;5005492;28;20038;-67
2022/04/17 10:31:17;;;;;;;6.32;3.55;;;;;;;12.01;37.49;97259.69;5016038;28;20088;-67
2022/04/17 10:34:01;;;;;;;2.83;2.35;;;;;;;12.02;35.76;97247.56;5001170;28;20506;-69
2022/04/17 10:36:44;;;;;;;4.32;2.30;;;;;;;11.36;37.42;97246.53;5000753;28;20050;-66
2022/04/17 10:39:18;;;;;;;4.40;2.83;;;;;;;11.50;36.49;97235.09;5010106;28;20042;-68
2022/04/17 10:41:44;;;;;;;4.00;2.40;;;;;;;11.51;36.95;97233.97;5001175;28;20077;-67
2022/04/17 10:44:10;;;;;;;5.15;2.95;;;;;;;11.51;38.09;97214.75;4996945;28;20072;-67
2022/04/17 10:46:52;;;;;;;4.30;2.90;;;;;;;12.02;37.31;97220.09;5008779;28;20061;-68
2022/04/17 10:49:22;;;;;;;5.65;3.33;;;;;;;12.61;38.15;97215.25;5009194;28;20033;-69
2022/04/17 10:51:55;;;;;;;4.78;2.30;;;;;;;12.81;36.16;97210.47;5000796;28;20046;-69
2022/04/17 10:54:21;;;;;;;3.35;2.10;;;;;;;12.16;37.17;97214.88;4941858;28;20124;-69
2022/04/17 10:56:55;;;;;;;5.93;2.22;;;;;;;12.71;39.23;97208.34;5010487;28;20402;-69
2022/04/17 10:59:26;;;;;;;6.35;2.90;;;;;;;12.94;36.42;97203.59;4999612;28;20050;-69
2022/04/17 11:02:01;;;;;;;3.70;2.58;;;;;;;12.86;38.98;97199.16;5005113;28;20045;-69
2022/04/17 11:04:37;;;;;;;4.63;2.40;;;;;;;13.09;35.49;97201.88;4998806;28;20057;-69
2022/04/17 11:07:05;;;;;;;4.88;2.70;;;;;;;12.62;37.43;97200.34;4999168;28;20116;-69
2022/04/17 11:09:36;;;;;;;4.18;2.15;;;;;;;12.80;36.63;97190.44;5000637;28;20053;-69
2022/04/17 11:12:10;;;;;;;3.67;2.42;;;;;;;11.99;35.67;97201.59;5007018;28;20486;-71
2022/04/17 11:14:38;;;;;;;3.53;2.42;;;;;;;12.48;37.09;97194.59;5017633;28;20057;-68
2022/04/17 11:17:08;;;;;;;3.97;2.15;;;;;;;12.24;36.93;97194.63;5009860;28;20041;-69
2022/04/17 11:19:35;;;;;;;4.70;2.65;;;;;;;12.53;36.04;97178.63;5009223;28;20060;-68
2022/04/17 11:22:04;;;;;;;3.78;2.05;;;;;;;13.41;35.48;97170.47;5000878;28;20048;-68
2022/04/17 11:24:55;;;;;;;4.90;3.03;;;;;;;13.01;34.76;97189.94;5015837;28;20041;-68
2022/04/17 11:27:38;;;;;;;4.30;2.60;;;;;;;13.31;35.60;97180.97;5017945;28;20390;-68
2022/04/17 11:30:05;;;;;;;4.13;2.85;;;;;;;13.14;35.15;97173.25;5010872;28;20049;-67
2022/04/17 11:32:30;;;;;;;5.07;2.20;;;;;;;13.18;36.42;97179.56;5010171;28;20052;-68
2022/04/17 11:35:00;;;;;;;6.43;2.60;;;;;;;13.44;34.29;97175.25;5000260;28;20042;-68
2022/04/17 11:37:27;;;;;;;6.05;2.90;;;;;;;13.68;34.32;97180.25;4994085;28;20049;-68
2022/04/17 11:39:55;;;;;;;4.68;3.20;;;;;;;12.63;35.26;97169.75;5000103;28;20080;-67
2022/04/17 11:42:21;;;;;;;3.22;2.22;;;;;;;12.86;35.29;97168.16;4994466;28;20042;-67
2022/04/17 11:44:48;;;;;;;4.00;2.20;;;;;;;12.64;35.33;97167.81;5019307;28;20049;-67
2022/04/17 11:47:15;;;;;;;3.92;2.72;;;;;;;13.06;35.34;97163.31;5020974;28;20041;-69